createdAt,value
2022-10-29T00:03:20.719Z,8.77
2022-10-29T00:08:23.544Z,8.75
2022-10-29T00:13:26.498Z,9.27
2022-10-29T00:18:30.519Z,7.95
2022-10-29T00:23:33.535Z,7.43
2022-10-29T00:28:36.857Z,6.63
2022-10-29T00:33:39.448Z,6.40
2022-10-29T00:38:42.692Z,5.50
2022-10-29T00:43:51.441Z,9.27
2022-10-29T00:48:56.136Z,5.95
2022-10-29T00:54:04.979Z,4.95
2022-10-29T00:59:09.197Z,5.43
2022-10-29T01:04:12.403Z,6.38
2022-10-29T01:09:15.040Z,3.60
2022-10-29T01:14:31.032Z,5.30
2022-10-29T01:20:04.342Z,5.72
2022-10-29T01:25:27.159Z,5.63
2022-10-29T01:30:54.537Z,6.40
2022-10-29T01:35:59.624Z,4.72
2022-10-29T01:41:17.276Z,8.77
2022-10-29T01:46:25.558Z,3.58
2022-10-29T01:51:33.183Z,4.78
2022-10-29T01:56:35.804Z,5.25
2022-10-29T02:01:56.485Z,4.80
2022-10-29T02:07:28.523Z,9.95
2022-10-29T02:12:40.587Z,7.95
2022-10-29T02:18:07.077Z,8.68
2022-10-29T02:23:09.867Z,7.68
2022-10-29T02:28:13.260Z,8.80
2022-10-29T02:33:15.868Z,10.40
2022-10-29T02:38:18.468Z,8.07
2022-10-29T02:43:21.058Z,7.68
2022-10-29T02:48:23.642Z,24.30
2022-10-29T02:53:26.179Z,6.78
2022-10-29T02:58:28.880Z,6.68
2022-10-29T03:03:31.497Z,7.40
2022-10-29T03:08:34.031Z,8.30
2022-10-29T03:18:44.095Z,6.63
2022-10-29T03:23:47.259Z,6.60
2022-10-29T03:28:49.888Z,6.70
2022-10-29T03:33:52.550Z,6.38
2022-10-29T03:38:55.180Z,6.40
2022-10-29T03:43:57.873Z,5.72
2022-10-29T03:49:00.556Z,7.35
2022-10-29T03:54:03.151Z,4.55
2022-10-29T03:59:05.872Z,7.97
2022-10-29T04:04:10.028Z,5.85
2022-10-29T04:09:12.583Z,7.78
2022-10-29T04:14:15.169Z,6.32
2022-10-29T04:19:17.879Z,5.30
2022-10-29T04:29:43.357Z,5.47
2022-10-29T04:34:45.961Z,7.90
2022-10-29T04:39:48.559Z,10.07
2022-10-29T04:44:51.134Z,6.07
2022-10-29T04:49:53.811Z,5.43
2022-10-29T04:54:56.405Z,9.07
2022-10-29T04:59:58.978Z,6.55
2022-10-29T05:05:01.763Z,6.70
2022-10-29T05:10:06.102Z,5.85
2022-10-29T05:15:08.908Z,8.00
2022-10-29T05:20:11.771Z,5.40
2022-10-29T05:25:15.104Z,7.40
2022-10-29T05:30:17.851Z,6.20
2022-10-29T05:35:20.459Z,5.75
2022-10-29T05:40:24.264Z,5.72
2022-10-29T05:45:26.887Z,8.43
2022-10-29T05:50:30.485Z,7.53
2022-10-29T05:55:34.765Z,8.75
2022-10-29T06:00:39.900Z,5.90
2022-10-29T06:05:42.734Z,6.53
2022-10-29T06:10:45.717Z,8.30
2022-10-29T06:15:51.287Z,8.00
2022-10-29T06:20:55.078Z,5.65
2022-10-29T06:26:02.066Z,7.72
2022-10-29T06:31:05.002Z,6.10
2022-10-29T06:36:08.218Z,6.28
2022-10-29T06:41:10.947Z,5.68
2022-10-29T06:46:13.602Z,7.70
2022-10-29T06:51:16.753Z,5.68
2022-10-29T06:56:19.896Z,6.90
2022-10-29T07:01:24.590Z,8.98
2022-10-29T07:06:33.671Z,7.70
2022-10-29T07:11:36.337Z,10.35
2022-10-29T07:16:38.884Z,7.28
2022-10-29T07:21:42.037Z,8.75
2022-10-29T07:26:44.786Z,11.48
2022-10-29T07:31:47.475Z,7.90
2022-10-29T07:36:50.345Z,11.00
2022-10-29T07:41:55.317Z,8.80
2022-10-29T07:47:03.186Z,12.15
2022-10-29T07:52:05.832Z,9.27
2022-10-29T07:57:08.769Z,8.90
2022-10-29T08:02:11.883Z,11.20
2022-10-29T08:07:14.538Z,9.45
2022-10-29T08:12:17.294Z,12.57
2022-10-29T08:17:19.908Z,8.23
2022-10-29T08:22:22.832Z,11.88
2022-10-29T08:27:25.803Z,9.32
2022-10-29T08:32:28.588Z,8.18
2022-10-29T08:37:31.784Z,7.32
2022-10-29T08:42:40.591Z,8.10
2022-10-29T08:48:06.293Z,5.95
2022-10-29T08:53:23.692Z,7.80
2022-10-29T08:58:33.492Z,6.85
2022-10-29T09:03:36.155Z,8.65
2022-10-29T09:08:45.097Z,9.50
2022-10-29T09:14:00.617Z,10.40
2022-10-29T09:19:08.341Z,10.10
2022-10-29T09:24:35.294Z,10.40
2022-10-29T09:29:58.327Z,10.77
2022-10-29T09:35:06.060Z,8.85
2022-10-29T09:40:33.019Z,11.48
2022-10-29T09:45:50.937Z,11.30
2022-10-29T09:51:22.624Z,12.65
2022-10-29T09:56:25.541Z,17.25
2022-10-29T10:01:28.837Z,15.45
2022-10-29T10:07:11.098Z,13.70
2022-10-29T10:12:13.742Z,14.27
2022-10-29T10:17:16.675Z,18.88
2022-10-29T10:22:22.654Z,16.20
2022-10-29T10:27:34.396Z,22.45
2022-10-29T10:32:37.115Z,21.90
2022-10-29T10:37:39.803Z,15.27
2022-10-29T10:42:47.196Z,18.33
2022-10-29T10:47:56.477Z,15.80
2022-10-29T10:53:03.089Z,17.42
2022-10-29T10:58:10.066Z,17.40
2022-10-29T11:03:18.134Z,18.88
2022-10-29T11:08:45.614Z,18.05
2022-10-29T11:13:50.333Z,16.52
2022-10-29T11:19:05.802Z,18.58
2022-10-29T11:24:27.847Z,18.45
2022-10-29T11:35:46.959Z,17.52
2022-10-29T11:40:54.977Z,15.13
2022-10-29T11:46:21.602Z,16.77
2022-10-29T11:51:41.311Z,14.35
2022-10-29T11:56:43.882Z,19.02
2022-10-29T12:01:58.466Z,19.98
2022-10-29T12:07:31.884Z,19.27
2022-10-29T12:12:56.397Z,16.30
2022-10-29T12:18:37.039Z,12.48
2022-10-29T12:24:01.754Z,18.23
2022-10-29T12:29:32.582Z,13.40
2022-10-29T12:34:38.110Z,16.48
2022-10-29T12:39:55.818Z,16.38
2022-10-29T12:45:06.823Z,16.98
2022-10-29T12:50:26.650Z,16.17
2022-10-29T12:55:30.860Z,17.05
2022-10-29T13:00:45.897Z,17.30
2022-10-29T13:05:48.571Z,17.90
2022-10-29T13:10:53.223Z,16.67
2022-10-29T13:16:02.700Z,17.10
2022-10-29T13:21:05.776Z,14.73
2022-10-29T13:26:09.014Z,17.35
2022-10-29T13:31:14.352Z,14.10
2022-10-29T13:36:16.890Z,14.57
2022-10-29T13:41:42.331Z,13.50
2022-10-29T13:46:56.705Z,13.85
2022-10-29T13:52:14.568Z,15.15
2022-10-29T13:57:25.350Z,17.30
2022-10-29T14:02:37.293Z,11.25
2022-10-29T14:12:58.007Z,13.60
2022-10-29T14:18:23.248Z,14.90
2022-10-29T14:23:26.899Z,14.02
2022-10-29T14:28:31.643Z,12.13
2022-10-29T14:33:36.796Z,12.95
2022-10-29T14:38:47.702Z,10.07
2022-10-29T14:43:58.725Z,10.93
2022-10-29T14:49:04.378Z,10.52
2022-10-29T14:54:15.615Z,10.95
2022-10-29T14:59:24.931Z,13.27
2022-10-29T15:04:32.610Z,7.22
2022-10-29T15:09:35.225Z,10.60
2022-10-29T15:14:47.475Z,7.78
2022-10-29T15:20:03.324Z,6.93
2022-10-29T15:25:19.305Z,7.65
2022-10-29T15:30:29.173Z,6.22
2022-10-29T15:35:32.067Z,9.57
2022-10-29T15:40:34.618Z,7.60
2022-10-29T15:45:37.153Z,6.68
2022-10-29T15:50:44.927Z,5.30
2022-10-29T15:55:53.000Z,6.95
2022-10-29T16:00:55.743Z,6.72
2022-10-29T16:06:03.990Z,7.32
2022-10-29T16:11:11.203Z,7.32
2022-10-29T16:16:22.520Z,8.55
2022-10-29T16:21:26.360Z,6.85
2022-10-29T16:26:29.423Z,8.02
2022-10-29T16:31:32.091Z,7.07
2022-10-29T16:36:34.801Z,7.30
2022-10-29T16:41:37.409Z,8.63
2022-10-29T16:46:40.027Z,6.38
2022-10-29T16:51:42.907Z,9.00
2022-10-29T16:56:46.539Z,9.18
2022-10-29T17:01:49.204Z,7.30
2022-10-29T17:06:51.822Z,9.45
2022-10-29T17:11:54.383Z,8.18
2022-10-29T17:16:57.407Z,8.45
2022-10-29T17:22:00.217Z,10.00
2022-10-29T17:27:02.927Z,9.23
2022-10-29T17:32:07.568Z,9.23
2022-10-29T17:37:11.423Z,9.93
2022-10-29T17:42:14.097Z,8.82
2022-10-29T17:47:16.656Z,13.00
2022-10-29T17:52:19.680Z,10.15
2022-10-29T17:57:22.276Z,11.82
2022-10-29T18:02:25.032Z,10.73
2022-10-29T18:07:27.798Z,10.18
2022-10-29T18:12:30.541Z,12.40
2022-10-29T18:17:33.551Z,9.88
2022-10-29T18:22:36.656Z,11.55
2022-10-29T18:27:40.835Z,12.93
2022-10-29T18:32:43.458Z,10.50
2022-10-29T18:37:47.068Z,11.45
2022-10-29T18:42:49.811Z,11.70
2022-10-29T18:47:52.397Z,12.50
2022-10-29T18:52:55.380Z,10.65
2022-10-29T18:57:58.210Z,9.05
2022-10-29T19:03:00.914Z,10.90
2022-10-29T19:08:05.784Z,11.73
2022-10-29T19:13:08.906Z,10.70
2022-10-29T19:18:12.115Z,10.40
2022-10-29T19:23:14.843Z,10.65
2022-10-29T19:28:17.423Z,13.38
2022-10-29T19:33:20.032Z,10.48
2022-10-29T19:38:22.742Z,12.10
2022-10-29T19:43:28.675Z,10.07
2022-10-29T19:48:31.212Z,9.93
2022-10-29T19:53:33.990Z,8.77
2022-10-29T19:58:36.566Z,6.90
2022-10-29T20:03:39.202Z,7.45
2022-10-29T20:08:42.186Z,8.38
2022-10-29T20:13:45.433Z,7.70
2022-10-29T20:18:48.995Z,7.78
2022-10-29T20:23:51.973Z,7.32
2022-10-29T20:28:57.147Z,7.22
2022-10-29T20:34:01.185Z,8.75
2022-10-29T20:39:04.266Z,5.75
2022-10-29T20:44:06.872Z,6.00
2022-10-29T20:49:10.934Z,6.40
2022-10-29T20:54:13.593Z,6.03
2022-10-29T20:59:16.800Z,5.10
2022-10-29T21:04:19.641Z,6.03
2022-10-29T21:09:22.920Z,5.57
2022-10-29T21:14:27.623Z,4.45
2022-10-29T21:19:30.755Z,7.18
2022-10-29T21:24:33.447Z,3.20
2022-10-29T21:29:36.237Z,6.47
2022-10-29T21:34:38.859Z,6.35
2022-10-29T21:39:41.612Z,3.05
2022-10-29T21:44:44.309Z,4.20
2022-10-29T21:49:51.833Z,3.92
2022-10-29T21:54:54.809Z,3.72
2022-10-29T21:59:57.551Z,2.88
2022-10-29T22:05:00.191Z,4.65
2022-10-29T22:10:03.124Z,3.40
2022-10-29T22:15:06.519Z,2.33
2022-10-29T22:20:09.770Z,3.63
2022-10-29T22:25:12.351Z,3.20
2022-10-29T22:30:15.063Z,2.40
2022-10-29T22:35:17.636Z,4.80
2022-10-29T22:40:20.225Z,3.70
2022-10-29T22:45:22.762Z,4.20
2022-10-29T22:50:25.427Z,3.63
2022-10-29T22:55:27.947Z,4.50
2022-10-29T23:00:30.656Z,3.13
2022-10-29T23:05:33.217Z,4.00
2022-10-29T23:10:36.152Z,3.80
2022-10-29T23:15:38.727Z,2.95
2022-10-29T23:20:41.540Z,3.08
2022-10-29T23:25:44.721Z,4.38
2022-10-29T23:30:53.344Z,3.30
2022-10-29T23:35:55.991Z,3.63
2022-10-29T23:40:58.869Z,6.15
2022-10-29T23:46:01.957Z,3.70
2022-10-29T23:51:05.043Z,3.70
2022-10-29T23:56:08.274Z,5.18
